sensor_id;sensor_type;location;lat;lon;timestamp;P1;durP1;ratioP1;P2;durP2;ratioP2
18125;SDS011;53956;52.442;13.284;2023-06-10T00:01:36;13.27;;;5.47;;
18125;SDS011;53956;52.442;13.284;2023-06-10T00:04:03;9.93;;;4.78;;
18125;SDS011;53956;52.442;13.284;2023-06-10T00:06:30;7.43;;;4.78;;
18125;SDS011;53956;52.442;13.284;2023-06-10T00:09:02;8.90;;;5.10;;
18125;SDS011;53956;52.442;13.284;2023-06-10T00:11:30;9.15;;;5.60;;
18125;SDS011;53956;52.442;13.284;2023-06-10T00:13:57;10.57;;;5.18;;
18125;SDS011;53956;52.442;13.284;2023-06-10T00:16:24;11.93;;;5.20;;
18125;SDS011;53956;52.442;13.284;2023-06-10T00:18:51;11.30;;;5.50;;
18125;SDS011;53956;52.442;13.284;2023-06-10T00:21:17;13.50;;;4.95;;
18125;SDS011;53956;52.442;13.284;2023-06-10T00:23:45;9.10;;;5.00;;
18125;SDS011;53956;52.442;13.284;2023-06-10T00:26:13;12.45;;;5.13;;
18125;SDS011;53956;52.442;13.284;2023-06-10T00:28:42;10.77;;;5.20;;
18125;SDS011;53956;52.442;13.284;2023-06-10T00:31:10;9.40;;;4.90;;
18125;SDS011;53956;52.442;13.284;2023-06-10T00:33:38;10.52;;;5.53;;
18125;SDS011;53956;52.442;13.284;2023-06-10T00:36:04;10.27;;;5.03;;
18125;SDS011;53956;52.442;13.284;2023-06-10T00:38:31;9.63;;;5.00;;
18125;SDS011;53956;52.442;13.284;2023-06-10T00:40:58;10.05;;;4.88;;
18125;SDS011;53956;52.442;13.284;2023-06-10T00:43:26;11.45;;;4.68;;
18125;SDS011;53956;52.442;13.284;2023-06-10T00:45:53;14.32;;;5.13;;
18125;SDS011;53956;52.442;13.284;2023-06-10T00:48:20;10.50;;;5.15;;
18125;SDS011;53956;52.442;13.284;2023-06-10T00:50:47;12.85;;;5.22;;
18125;SDS011;53956;52.442;13.284;2023-06-10T00:53:14;10.13;;;5.13;;
18125;SDS011;53956;52.442;13.284;2023-06-10T00:55:42;11.25;;;4.90;;
18125;SDS011;53956;52.442;13.284;2023-06-10T00:58:08;8.80;;;4.97;;
18125;SDS011;53956;52.442;13.284;2023-06-10T01:00:37;10.27;;;5.13;;
18125;SDS011;53956;52.442;13.284;2023-06-10T01:03:04;10.48;;;4.90;;
18125;SDS011;53956;52.442;13.284;2023-06-10T01:05:32;9.23;;;4.97;;
18125;SDS011;53956;52.442;13.284;2023-06-10T01:08:07;10.95;;;4.80;;
18125;SDS011;53956;52.442;13.284;2023-06-10T01:10:41;10.60;;;4.85;;
18125;SDS011;53956;52.442;13.284;2023-06-10T01:13:13;10.38;;;5.18;;
18125;SDS011;53956;52.442;13.284;2023-06-10T01:15:42;8.82;;;5.25;;
18125;SDS011;53956;52.442;13.284;2023-06-10T01:18:11;13.57;;;5.72;;
18125;SDS011;53956;52.442;13.284;2023-06-10T01:20:40;12.98;;;5.18;;
18125;SDS011;53956;52.442;13.284;2023-06-10T01:23:09;13.82;;;5.25;;
18125;SDS011;53956;52.442;13.284;2023-06-10T01:25:37;8.30;;;5.05;;
18125;SDS011;53956;52.442;13.284;2023-06-10T01:28:07;9.88;;;5.10;;
18125;SDS011;53956;52.442;13.284;2023-06-10T01:30:41;12.52;;;5.28;;
18125;SDS011;53956;52.442;13.284;2023-06-10T01:33:14;11.20;;;5.15;;
18125;SDS011;53956;52.442;13.284;2023-06-10T01:35:47;12.43;;;5.25;;
18125;SDS011;53956;52.442;13.284;2023-06-10T01:38:16;9.30;;;4.90;;
18125;SDS011;53956;52.442;13.284;2023-06-10T01:40:45;13.10;;;4.95;;
18125;SDS011;53956;52.442;13.284;2023-06-10T01:43:13;10.88;;;4.93;;
18125;SDS011;53956;52.442;13.284;2023-06-10T01:45:39;11.55;;;5.18;;
18125;SDS011;53956;52.442;13.284;2023-06-10T01:48:06;12.25;;;5.25;;
18125;SDS011;53956;52.442;13.284;2023-06-10T01:50:33;9.93;;;4.95;;
18125;SDS011;53956;52.442;13.284;2023-06-10T01:53:00;11.80;;;5.03;;
18125;SDS011;53956;52.442;13.284;2023-06-10T01:55:28;14.02;;;4.82;;
18125;SDS011;53956;52.442;13.284;2023-06-10T01:57:54;9.73;;;4.47;;
18125;SDS011;53956;52.442;13.284;2023-06-10T02:00:21;10.30;;;4.90;;
18125;SDS011;53956;52.442;13.284;2023-06-10T02:02:48;10.43;;;5.13;;
18125;SDS011;53956;52.442;13.284;2023-06-10T02:05:15;11.95;;;5.22;;
18125;SDS011;53956;52.442;13.284;2023-06-10T02:07:41;10.73;;;4.90;;
18125;SDS011;53956;52.442;13.284;2023-06-10T02:10:08;13.38;;;5.50;;
18125;SDS011;53956;52.442;13.284;2023-06-10T02:12:36;12.05;;;5.20;;
18125;SDS011;53956;52.442;13.284;2023-06-10T02:15:03;12.15;;;4.55;;
18125;SDS011;53956;52.442;13.284;2023-06-10T02:17:30;10.85;;;4.50;;
18125;SDS011;53956;52.442;13.284;2023-06-10T02:19:57;12.95;;;5.03;;
18125;SDS011;53956;52.442;13.284;2023-06-10T02:22:25;7.60;;;4.80;;
18125;SDS011;53956;52.442;13.284;2023-06-10T02:24:51;9.25;;;4.75;;
18125;SDS011;53956;52.442;13.284;2023-06-10T02:27:18;10.70;;;5.10;;
18125;SDS011;53956;52.442;13.284;2023-06-10T02:29:47;16.20;;;5.25;;
18125;SDS011;53956;52.442;13.284;2023-06-10T02:32:14;10.57;;;4.82;;
18125;SDS011;53956;52.442;13.284;2023-06-10T02:34:42;8.25;;;5.00;;
18125;SDS011;53956;52.442;13.284;2023-06-10T02:37:09;10.68;;;4.60;;
18125;SDS011;53956;52.442;13.284;2023-06-10T02:39:36;11.13;;;5.30;;
18125;SDS011;53956;52.442;13.284;2023-06-10T02:42:07;10.27;;;5.00;;
18125;SDS011;53956;52.442;13.284;2023-06-10T02:44:34;15.63;;;5.55;;
18125;SDS011;53956;52.442;13.284;2023-06-10T02:47:03;12.18;;;5.18;;
18125;SDS011;53956;52.442;13.284;2023-06-10T02:49:32;10.45;;;5.00;;
18125;SDS011;53956;52.442;13.284;2023-06-10T02:52:00;7.90;;;5.10;;
18125;SDS011;53956;52.442;13.284;2023-06-10T02:54:26;10.77;;;5.20;;
18125;SDS011;53956;52.442;13.284;2023-06-10T02:56:54;14.65;;;5.28;;
18125;SDS011;53956;52.442;13.284;2023-06-10T02:59:24;8.55;;;5.03;;
18125;SDS011;53956;52.442;13.284;2023-06-10T03:01:53;12.88;;;4.75;;
18125;SDS011;53956;52.442;13.284;2023-06-10T03:04:22;10.02;;;5.00;;
18125;SDS011;53956;52.442;13.284;2023-06-10T03:06:58;11.18;;;5.00;;
18125;SDS011;53956;52.442;13.284;2023-06-10T03:09:31;10.02;;;5.43;;
18125;SDS011;53956;52.442;13.284;2023-06-10T03:12:00;9.43;;;4.82;;
18125;SDS011;53956;52.442;13.284;2023-06-10T03:14:32;11.88;;;5.20;;
18125;SDS011;53956;52.442;13.284;2023-06-10T03:16:59;9.07;;;4.57;;
18125;SDS011;53956;52.442;13.284;2023-06-10T03:19:28;9.18;;;4.90;;
18125;SDS011;53956;52.442;13.284;2023-06-10T03:21:57;12.20;;;5.40;;
18125;SDS011;53956;52.442;13.284;2023-06-10T03:24:35;12.25;;;4.95;;
18125;SDS011;53956;52.442;13.284;2023-06-10T03:27:06;12.95;;;5.43;;
18125;SDS011;53956;52.442;13.284;2023-06-10T03:29:35;10.60;;;5.25;;
18125;SDS011;53956;52.442;13.284;2023-06-10T03:32:03;10.25;;;5.18;;
18125;SDS011;53956;52.442;13.284;2023-06-10T03:34:33;12.75;;;5.63;;
18125;SDS011;53956;52.442;13.284;2023-06-10T03:37:00;8.75;;;5.05;;
18125;SDS011;53956;52.442;13.284;2023-06-10T03:39:28;10.15;;;5.68;;
18125;SDS011;53956;52.442;13.284;2023-06-10T03:41:56;13.82;;;5.47;;
18125;SDS011;53956;52.442;13.284;2023-06-10T03:44:25;12.48;;;5.88;;
18125;SDS011;53956;52.442;13.284;2023-06-10T03:46:52;12.40;;;5.72;;
18125;SDS011;53956;52.442;13.284;2023-06-10T03:49:19;11.70;;;5.80;;
18125;SDS011;53956;52.442;13.284;2023-06-10T03:51:47;13.00;;;5.45;;
18125;SDS011;53956;52.442;13.284;2023-06-10T03:54:14;13.35;;;5.75;;
18125;SDS011;53956;52.442;13.284;2023-06-10T03:56:41;9.18;;;5.22;;
18125;SDS011;53956;52.442;13.284;2023-06-10T03:59:07;12.48;;;5.82;;
18125;SDS011;53956;52.442;13.284;2023-06-10T04:01:34;11.20;;;5.75;;
18125;SDS011;53956;52.442;13.284;2023-06-10T04:04:02;9.45;;;5.32;;
18125;SDS011;53956;52.442;13.284;2023-06-10T04:06:33;13.90;;;5.70;;
18125;SDS011;53956;52.442;13.284;2023-06-10T04:09:01;12.23;;;5.80;;
18125;SDS011;53956;52.442;13.284;2023-06-10T04:11:28;10.48;;;6.03;;
18125;SDS011;53956;52.442;13.284;2023-06-10T04:13:57;10.20;;;6.00;;
18125;SDS011;53956;52.442;13.284;2023-06-10T04:16:25;13.48;;;6.38;;
18125;SDS011;53956;52.442;13.284;2023-06-10T04:18:52;10.88;;;5.72;;
18125;SDS011;53956;52.442;13.284;2023-06-10T04:21:19;10.52;;;5.68;;
18125;SDS011;53956;52.442;13.284;2023-06-10T04:23:46;10.20;;;6.00;;
18125;SDS011;53956;52.442;13.284;2023-06-10T04:26:15;8.95;;;5.85;;
18125;SDS011;53956;52.442;13.284;2023-06-10T04:28:42;11.27;;;6.07;;
18125;SDS011;53956;52.442;13.284;2023-06-10T04:31:09;13.27;;;6.10;;
18125;SDS011;53956;52.442;13.284;2023-06-10T04:33:36;12.82;;;5.85;;
18125;SDS011;53956;52.442;13.284;2023-06-10T04:36:04;13.35;;;6.15;;
18125;SDS011;53956;52.442;13.284;2023-06-10T04:38:31;11.20;;;5.88;;
18125;SDS011;53956;52.442;13.284;2023-06-10T04:40:59;12.68;;;6.05;;
18125;SDS011;53956;52.442;13.284;2023-06-10T04:43:30;11.68;;;5.88;;
18125;SDS011;53956;52.442;13.284;2023-06-10T04:45:58;10.70;;;6.15;;
18125;SDS011;53956;52.442;13.284;2023-06-10T04:48:26;10.32;;;6.25;;
18125;SDS011;53956;52.442;13.284;2023-06-10T04:50:53;12.73;;;6.22;;
18125;SDS011;53956;52.442;13.284;2023-06-10T04:53:19;11.93;;;6.10;;
18125;SDS011;53956;52.442;13.284;2023-06-10T04:55:46;13.88;;;6.70;;
18125;SDS011;53956;52.442;13.284;2023-06-10T04:58:13;13.25;;;6.50;;
18125;SDS011;53956;52.442;13.284;2023-06-10T05:00:41;10.00;;;5.93;;
18125;SDS011;53956;52.442;13.284;2023-06-10T05:03:08;12.05;;;6.15;;
18125;SDS011;53956;52.442;13.284;2023-06-10T05:05:35;11.80;;;6.38;;
18125;SDS011;53956;52.442;13.284;2023-06-10T05:08:02;15.38;;;6.50;;
18125;SDS011;53956;52.442;13.284;2023-06-10T05:10:28;13.30;;;6.32;;
18125;SDS011;53956;52.442;13.284;2023-06-10T05:12:56;10.48;;;6.85;;
18125;SDS011;53956;52.442;13.284;2023-06-10T05:15:23;13.63;;;6.57;;
18125;SDS011;53956;52.442;13.284;2023-06-10T05:17:55;13.27;;;6.45;;
18125;SDS011;53956;52.442;13.284;2023-06-10T05:20:22;16.67;;;6.47;;
18125;SDS011;53956;52.442;13.284;2023-06-10T05:22:50;11.40;;;6.50;;
18125;SDS011;53956;52.442;13.284;2023-06-10T05:25:17;13.13;;;6.25;;
18125;SDS011;53956;52.442;13.284;2023-06-10T05:27:44;11.15;;;6.18;;
18125;SDS011;53956;52.442;13.284;2023-06-10T05:30:11;11.82;;;6.50;;
18125;SDS011;53956;52.442;13.284;2023-06-10T05:32:38;11.75;;;6.80;;
18125;SDS011;53956;52.442;13.284;2023-06-10T05:35:06;15.68;;;6.85;;
18125;SDS011;53956;52.442;13.284;2023-06-10T05:37:33;14.20;;;6.07;;
18125;SDS011;53956;52.442;13.284;2023-06-10T05:40:01;14.32;;;6.38;;
18125;SDS011;53956;52.442;13.284;2023-06-10T05:42:29;9.32;;;6.20;;
18125;SDS011;53956;52.442;13.284;2023-06-10T05:44:56;14.77;;;6.68;;
18125;SDS011;53956;52.442;13.284;2023-06-10T05:47:22;10.95;;;6.68;;
18125;SDS011;53956;52.442;13.284;2023-06-10T05:49:49;11.05;;;7.10;;
18125;SDS011;53956;52.442;13.284;2023-06-10T05:52:18;15.43;;;7.05;;
18125;SDS011;53956;52.442;13.284;2023-06-10T05:54:45;12.20;;;6.40;;
18125;SDS011;53956;52.442;13.284;2023-06-10T05:57:12;11.52;;;6.30;;
18125;SDS011;53956;52.442;13.284;2023-06-10T05:59:38;14.75;;;6.50;;
18125;SDS011;53956;52.442;13.284;2023-06-10T06:02:05;10.80;;;6.50;;
18125;SDS011;53956;52.442;13.284;2023-06-10T06:04:32;12.40;;;6.88;;
18125;SDS011;53956;52.442;13.284;2023-06-10T06:06:59;13.13;;;6.80;;
18125;SDS011;53956;52.442;13.284;2023-06-10T06:09:27;11.13;;;6.35;;
18125;SDS011;53956;52.442;13.284;2023-06-10T06:11:54;12.95;;;6.50;;
18125;SDS011;53956;52.442;13.284;2023-06-10T06:14:20;13.63;;;6.65;;
18125;SDS011;53956;52.442;13.284;2023-06-10T06:16:47;12.43;;;6.55;;
18125;SDS011;53956;52.442;13.284;2023-06-10T06:19:14;15.30;;;6.40;;
18125;SDS011;53956;52.442;13.284;2023-06-10T06:21:40;11.30;;;6.53;;
18125;SDS011;53956;52.442;13.284;2023-06-10T06:24:07;11.43;;;6.45;;
18125;SDS011;53956;52.442;13.284;2023-06-10T06:26:35;11.30;;;6.72;;
18125;SDS011;53956;52.442;13.284;2023-06-10T06:29:02;13.85;;;6.30;;
18125;SDS011;53956;52.442;13.284;2023-06-10T06:31:28;11.68;;;6.78;;
18125;SDS011;53956;52.442;13.284;2023-06-10T06:33:55;13.27;;;6.78;;
18125;SDS011;53956;52.442;13.284;2023-06-10T06:36:23;11.48;;;6.60;;
18125;SDS011;53956;52.442;13.284;2023-06-10T06:38:50;11.07;;;6.68;;
18125;SDS011;53956;52.442;13.284;2023-06-10T06:41:19;13.02;;;7.15;;
18125;SDS011;53956;52.442;13.284;2023-06-10T06:43:48;13.60;;;6.65;;
18125;SDS011;53956;52.442;13.284;2023-06-10T06:46:22;10.60;;;6.45;;
18125;SDS011;53956;52.442;13.284;2023-06-10T06:48:49;11.90;;;6.78;;
18125;SDS011;53956;52.442;13.284;2023-06-10T06:51:16;12.80;;;7.32;;
18125;SDS011;53956;52.442;13.284;2023-06-10T06:53:42;16.48;;;7.30;;
18125;SDS011;53956;52.442;13.284;2023-06-10T06:56:10;14.50;;;7.28;;
18125;SDS011;53956;52.442;13.284;2023-06-10T06:58:37;11.32;;;6.88;;
18125;SDS011;53956;52.442;13.284;2023-06-10T07:01:06;11.52;;;7.35;;
18125;SDS011;53956;52.442;13.284;2023-06-10T07:03:32;14.10;;;6.55;;
18125;SDS011;53956;52.442;13.284;2023-06-10T07:05:59;14.95;;;7.47;;
18125;SDS011;53956;52.442;13.284;2023-06-10T07:08:25;13.65;;;7.13;;
18125;SDS011;53956;52.442;13.284;2023-06-10T07:10:52;15.48;;;7.07;;
18125;SDS011;53956;52.442;13.284;2023-06-10T07:13:19;14.82;;;7.35;;
18125;SDS011;53956;52.442;13.284;2023-06-10T07:15:45;11.35;;;7.95;;
18125;SDS011;53956;52.442;13.284;2023-06-10T07:18:14;13.13;;;6.93;;
18125;SDS011;53956;52.442;13.284;2023-06-10T07:20:41;12.93;;;7.10;;
18125;SDS011;53956;52.442;13.284;2023-06-10T07:23:07;14.43;;;7.22;;
18125;SDS011;53956;52.442;13.284;2023-06-10T07:25:34;14.48;;;7.18;;
18125;SDS011;53956;52.442;13.284;2023-06-10T07:28:01;12.82;;;7.20;;
18125;SDS011;53956;52.442;13.284;2023-06-10T07:30:27;12.30;;;6.70;;
18125;SDS011;53956;52.442;13.284;2023-06-10T07:32:54;13.93;;;7.50;;
18125;SDS011;53956;52.442;13.284;2023-06-10T07:35:22;14.48;;;7.30;;
18125;SDS011;53956;52.442;13.284;2023-06-10T07:37:49;10.00;;;7.30;;
18125;SDS011;53956;52.442;13.284;2023-06-10T07:40:16;11.90;;;7.32;;
18125;SDS011;53956;52.442;13.284;2023-06-10T07:42:43;11.27;;;7.20;;
18125;SDS011;53956;52.442;13.284;2023-06-10T07:45:10;11.88;;;7.05;;
18125;SDS011;53956;52.442;13.284;2023-06-10T07:47:36;10.82;;;6.45;;
18125;SDS011;53956;52.442;13.284;2023-06-10T07:50:03;12.90;;;7.30;;
18125;SDS011;53956;52.442;13.284;2023-06-10T07:52:31;11.88;;;7.20;;
18125;SDS011;53956;52.442;13.284;2023-06-10T07:54:58;14.18;;;7.30;;
18125;SDS011;53956;52.442;13.284;2023-06-10T07:57:25;12.43;;;7.70;;
18125;SDS011;53956;52.442;13.284;2023-06-10T07:59:51;14.32;;;7.70;;
18125;SDS011;53956;52.442;13.284;2023-06-10T08:02:20;12.35;;;7.20;;
18125;SDS011;53956;52.442;13.284;2023-06-10T08:04:46;14.25;;;7.68;;
18125;SDS011;53956;52.442;13.284;2023-06-10T08:07:13;13.23;;;7.63;;
18125;SDS011;53956;52.442;13.284;2023-06-10T08:09:41;13.40;;;7.72;;
18125;SDS011;53956;52.442;13.284;2023-06-10T08:12:08;13.55;;;7.35;;
18125;SDS011;53956;52.442;13.284;2023-06-10T08:14:38;11.40;;;7.28;;
18125;SDS011;53956;52.442;13.284;2023-06-10T08:17:05;10.80;;;7.30;;
18125;SDS011;53956;52.442;13.284;2023-06-10T08:19:32;13.20;;;8.10;;
18125;SDS011;53956;52.442;13.284;2023-06-10T08:21:58;11.10;;;6.88;;
18125;SDS011;53956;52.442;13.284;2023-06-10T08:24:25;12.75;;;8.02;;
18125;SDS011;53956;52.442;13.284;2023-06-10T08:26:53;18.13;;;7.45;;
18125;SDS011;53956;52.442;13.284;2023-06-10T08:29:21;12.20;;;7.97;;
18125;SDS011;53956;52.442;13.284;2023-06-10T08:31:47;13.50;;;7.60;;
18125;SDS011;53956;52.442;13.284;2023-06-10T08:34:14;12.23;;;7.10;;
18125;SDS011;53956;52.442;13.284;2023-06-10T08:36:41;11.88;;;7.45;;
18125;SDS011;53956;52.442;13.284;2023-06-10T08:39:09;12.32;;;7.82;;
18125;SDS011;53956;52.442;13.284;2023-06-10T08:41:36;12.00;;;8.50;;
18125;SDS011;53956;52.442;13.284;2023-06-10T08:44:10;13.00;;;7.32;;
18125;SDS011;53956;52.442;13.284;2023-06-10T08:46:44;12.30;;;7.43;;
18125;SDS011;53956;52.442;13.284;2023-06-10T08:49:14;14.80;;;7.50;;
18125;SDS011;53956;52.442;13.284;2023-06-10T08:51:45;11.18;;;7.20;;
18125;SDS011;53956;52.442;13.284;2023-06-10T08:54:17;17.27;;;8.05;;
18125;SDS011;53956;52.442;13.284;2023-06-10T08:56:48;12.88;;;8.15;;
18125;SDS011;53956;52.442;13.284;2023-06-10T08:59:17;13.07;;;7.57;;
18125;SDS011;53956;52.442;13.284;2023-06-10T09:01:46;17.48;;;8.45;;
18125;SDS011;53956;52.442;13.284;2023-06-10T09:04:13;11.05;;;7.55;;
18125;SDS011;53956;52.442;13.284;2023-06-10T09:06:42;13.05;;;7.57;;
18125;SDS011;53956;52.442;13.284;2023-06-10T09:09:10;12.68;;;7.20;;
18125;SDS011;53956;52.442;13.284;2023-06-10T09:11:39;14.32;;;7.93;;
18125;SDS011;53956;52.442;13.284;2023-06-10T09:14:08;15.05;;;7.72;;
18125;SDS011;53956;52.442;13.284;2023-06-10T09:16:37;11.90;;;7.82;;
18125;SDS011;53956;52.442;13.284;2023-06-10T09:19:04;15.77;;;7.07;;
18125;SDS011;53956;52.442;13.284;2023-06-10T09:21:33;10.23;;;6.47;;
18125;SDS011;53956;52.442;13.284;2023-06-10T09:24:00;13.77;;;7.82;;
18125;SDS011;53956;52.442;13.284;2023-06-10T09:26:27;14.02;;;7.45;;
18125;SDS011;53956;52.442;13.284;2023-06-10T09:28:57;14.20;;;7.90;;
18125;SDS011;53956;52.442;13.284;2023-06-10T09:31:28;13.68;;;7.20;;
18125;SDS011;53956;52.442;13.284;2023-06-10T09:34:05;11.13;;;7.28;;
18125;SDS011;53956;52.442;13.284;2023-06-10T09:36:33;12.68;;;7.82;;
18125;SDS011;53956;52.442;13.284;2023-06-10T09:38:59;9.85;;;7.60;;
18125;SDS011;53956;52.442;13.284;2023-06-10T09:41:31;8.73;;;6.80;;
18125;SDS011;53956;52.442;13.284;2023-06-10T09:43:59;11.13;;;6.80;;
18125;SDS011;53956;52.442;13.284;2023-06-10T09:46:25;10.38;;;7.80;;
18125;SDS011;53956;52.442;13.284;2023-06-10T09:48:57;9.95;;;7.70;;
18125;SDS011;53956;52.442;13.284;2023-06-10T09:51:26;11.45;;;6.90;;
18125;SDS011;53956;52.442;13.284;2023-06-10T09:53:53;10.73;;;7.55;;
18125;SDS011;53956;52.442;13.284;2023-06-10T09:56:20;12.50;;;7.93;;
18125;SDS011;53956;52.442;13.284;2023-06-10T09:58:49;10.32;;;7.35;;
18125;SDS011;53956;52.442;13.284;2023-06-10T10:01:19;13.38;;;8.07;;
18125;SDS011;53956;52.442;13.284;2023-06-10T10:03:45;13.73;;;8.02;;
18125;SDS011;53956;52.442;13.284;2023-06-10T10:06:14;12.20;;;7.57;;
18125;SDS011;53956;52.442;13.284;2023-06-10T10:08:42;11.02;;;6.70;;
18125;SDS011;53956;52.442;13.284;2023-06-10T10:11:09;12.15;;;6.63;;
18125;SDS011;53956;52.442;13.284;2023-06-10T10:13:36;12.70;;;7.30;;
18125;SDS011;53956;52.442;13.284;2023-06-10T10:16:04;13.82;;;7.20;;
18125;SDS011;53956;52.442;13.284;2023-06-10T10:18:36;13.90;;;7.15;;
18125;SDS011;53956;52.442;13.284;2023-06-10T10:21:09;14.75;;;7.03;;
18125;SDS011;53956;52.442;13.284;2023-06-10T10:23:39;13.68;;;7.70;;
18125;SDS011;53956;52.442;13.284;2023-06-10T10:26:11;11.70;;;7.32;;
18125;SDS011;53956;52.442;13.284;2023-06-10T10:28:41;14.93;;;7.45;;
18125;SDS011;53956;52.442;13.284;2023-06-10T10:31:12;11.68;;;7.38;;
18125;SDS011;53956;52.442;13.284;2023-06-10T10:33:45;9.10;;;6.82;;
18125;SDS011;53956;52.442;13.284;2023-06-10T10:36:21;12.15;;;7.93;;
18125;SDS011;53956;52.442;13.284;2023-06-10T10:38:48;11.95;;;7.53;;
18125;SDS011;53956;52.442;13.284;2023-06-10T10:41:16;10.90;;;7.22;;
18125;SDS011;53956;52.442;13.284;2023-06-10T10:43:44;11.00;;;7.00;;
18125;SDS011;53956;52.442;13.284;2023-06-10T10:46:12;10.50;;;7.82;;
18125;SDS011;53956;52.442;13.284;2023-06-10T10:48:40;12.05;;;8.15;;
18125;SDS011;53956;52.442;13.284;2023-06-10T10:51:07;10.32;;;7.40;;
18125;SDS011;53956;52.442;13.284;2023-06-10T10:53:36;9.75;;;6.80;;
18125;SDS011;53956;52.442;13.284;2023-06-10T10:56:07;10.02;;;6.40;;
18125;SDS011;53956;52.442;13.284;2023-06-10T10:58:40;8.73;;;6.13;;
18125;SDS011;53956;52.442;13.284;2023-06-10T11:01:10;9.32;;;5.88;;
18125;SDS011;53956;52.442;13.284;2023-06-10T11:03:42;8.57;;;5.28;;
18125;SDS011;53956;52.442;13.284;2023-06-10T11:06:13;8.05;;;5.40;;
18125;SDS011;53956;52.442;13.284;2023-06-10T11:08:47;6.57;;;5.13;;
18125;SDS011;53956;52.442;13.284;2023-06-10T11:11:19;6.90;;;4.80;;
18125;SDS011;53956;52.442;13.284;2023-06-10T11:14:06;5.60;;;4.63;;
18125;SDS011;53956;52.442;13.284;2023-06-10T11:16:38;7.45;;;4.82;;
18125;SDS011;53956;52.442;13.284;2023-06-10T11:19:06;6.03;;;4.80;;
18125;SDS011;53956;52.442;13.284;2023-06-10T11:21:36;7.32;;;4.75;;
18125;SDS011;53956;52.442;13.284;2023-06-10T11:24:23;10.93;;;5.57;;
18125;SDS011;53956;52.442;13.284;2023-06-10T11:26:49;6.93;;;5.07;;
18125;SDS011;53956;52.442;13.284;2023-06-10T11:29:17;7.03;;;5.07;;
18125;SDS011;53956;52.442;13.284;2023-06-10T11:31:46;6.18;;;5.10;;
18125;SDS011;53956;52.442;13.284;2023-06-10T11:34:20;7.70;;;5.90;;
18125;SDS011;53956;52.442;13.284;2023-06-10T11:36:48;8.93;;;6.03;;
18125;SDS011;53956;52.442;13.284;2023-06-10T11:39:15;9.55;;;5.82;;
18125;SDS011;53956;52.442;13.284;2023-06-10T11:41:45;10.88;;;6.40;;
18125;SDS011;53956;52.442;13.284;2023-06-10T11:44:12;8.55;;;5.90;;
18125;SDS011;53956;52.442;13.284;2023-06-10T11:46:41;9.40;;;6.97;;
18125;SDS011;53956;52.442;13.284;2023-06-10T11:49:08;9.05;;;6.30;;
18125;SDS011;53956;52.442;13.284;2023-06-10T11:51:35;13.10;;;7.03;;
18125;SDS011;53956;52.442;13.284;2023-06-10T11:54:04;8.43;;;6.72;;
18125;SDS011;53956;52.442;13.284;2023-06-10T11:56:31;10.88;;;7.20;;
18125;SDS011;53956;52.442;13.284;2023-06-10T11:58:59;10.48;;;7.20;;
18125;SDS011;53956;52.442;13.284;2023-06-10T12:01:29;9.32;;;7.40;;
18125;SDS011;53956;52.442;13.284;2023-06-10T12:03:58;9.27;;;6.57;;
18125;SDS011;53956;52.442;13.284;2023-06-10T12:06:26;9.07;;;6.68;;
18125;SDS011;53956;52.442;13.284;2023-06-10T12:08:53;8.82;;;6.68;;
18125;SDS011;53956;52.442;13.284;2023-06-10T12:11:20;8.23;;;6.38;;
18125;SDS011;53956;52.442;13.284;2023-06-10T12:13:48;10.55;;;6.75;;
18125;SDS011;53956;52.442;13.284;2023-06-10T12:16:16;12.52;;;7.18;;
18125;SDS011;53956;52.442;13.284;2023-06-10T12:18:44;7.85;;;6.43;;
18125;SDS011;53956;52.442;13.284;2023-06-10T12:21:17;11.93;;;6.53;;
18125;SDS011;53956;52.442;13.284;2023-06-10T12:23:59;9.18;;;6.60;;
18125;SDS011;53956;52.442;13.284;2023-06-10T12:26:37;10.32;;;5.95;;
18125;SDS011;53956;52.442;13.284;2023-06-10T12:29:17;9.05;;;6.35;;
18125;SDS011;53956;52.442;13.284;2023-06-10T12:31:55;8.32;;;6.45;;
18125;SDS011;53956;52.442;13.284;2023-06-10T12:34:30;9.73;;;6.43;;
18125;SDS011;53956;52.442;13.284;2023-06-10T12:37:04;9.68;;;6.78;;
18125;SDS011;53956;52.442;13.284;2023-06-10T12:39:32;10.65;;;6.00;;
18125;SDS011;53956;52.442;13.284;2023-06-10T12:41:59;10.85;;;6.25;;
18125;SDS011;53956;52.442;13.284;2023-06-10T12:44:29;7.15;;;5.80;;
18125;SDS011;53956;52.442;13.284;2023-06-10T12:47:00;6.50;;;5.80;;
18125;SDS011;53956;52.442;13.284;2023-06-10T12:49:32;8.52;;;6.00;;
18125;SDS011;53956;52.442;13.284;2023-06-10T12:52:00;11.38;;;6.28;;
18125;SDS011;53956;52.442;13.284;2023-06-10T12:54:28;9.90;;;6.50;;
18125;SDS011;53956;52.442;13.284;2023-06-10T12:56:54;9.52;;;6.28;;
18125;SDS011;53956;52.442;13.284;2023-06-10T12:59:21;11.13;;;6.80;;
18125;SDS011;53956;52.442;13.284;2023-06-10T13:01:49;9.65;;;7.13;;
18125;SDS011;53956;52.442;13.284;2023-06-10T13:04:17;11.32;;;7.55;;
18125;SDS011;53956;52.442;13.284;2023-06-10T13:06:44;9.75;;;7.45;;
18125;SDS011;53956;52.442;13.284;2023-06-10T13:09:12;9.43;;;7.55;;
18125;SDS011;53956;52.442;13.284;2023-06-10T13:11:40;10.02;;;7.30;;
18125;SDS011;53956;52.442;13.284;2023-06-10T13:14:06;9.15;;;7.30;;
18125;SDS011;53956;52.442;13.284;2023-06-10T13:16:33;10.93;;;7.70;;
18125;SDS011;53956;52.442;13.284;2023-06-10T13:19:03;11.55;;;7.65;;
18125;SDS011;53956;52.442;13.284;2023-06-10T13:21:30;9.23;;;7.68;;
18125;SDS011;53956;52.442;13.284;2023-06-10T13:23:57;10.93;;;7.65;;
18125;SDS011;53956;52.442;13.284;2023-06-10T13:26:24;9.43;;;7.70;;
18125;SDS011;53956;52.442;13.284;2023-06-10T13:28:52;12.80;;;7.70;;
18125;SDS011;53956;52.442;13.284;2023-06-10T13:31:19;11.90;;;7.43;;
18125;SDS011;53956;52.442;13.284;2023-06-10T13:33:46;12.82;;;8.20;;
18125;SDS011;53956;52.442;13.284;2023-06-10T13:36:13;10.60;;;7.53;;
18125;SDS011;53956;52.442;13.284;2023-06-10T13:38:39;11.18;;;8.00;;
18125;SDS011;53956;52.442;13.284;2023-06-10T13:41:06;9.15;;;7.40;;
18125;SDS011;53956;52.442;13.284;2023-06-10T13:43:32;8.23;;;7.15;;
18125;SDS011;53956;52.442;13.284;2023-06-10T13:46:00;12.18;;;7.50;;
18125;SDS011;53956;52.442;13.284;2023-06-10T13:48:27;12.93;;;8.00;;
18125;SDS011;53956;52.442;13.284;2023-06-10T13:50:54;9.38;;;7.78;;
18125;SDS011;53956;52.442;13.284;2023-06-10T13:53:20;13.05;;;8.02;;
18125;SDS011;53956;52.442;13.284;2023-06-10T13:55:47;14.98;;;8.00;;
18125;SDS011;53956;52.442;13.284;2023-06-10T13:58:14;12.30;;;7.78;;
18125;SDS011;53956;52.442;13.284;2023-06-10T14:00:40;10.85;;;7.95;;
18125;SDS011;53956;52.442;13.284;2023-06-10T14:03:08;10.82;;;7.82;;
18125;SDS011;53956;52.442;13.284;2023-06-10T14:05:35;9.02;;;7.63;;
18125;SDS011;53956;52.442;13.284;2023-06-10T14:08:01;10.40;;;7.50;;
18125;SDS011;53956;52.442;13.284;2023-06-10T14:10:28;11.02;;;7.80;;
18125;SDS011;53956;52.442;13.284;2023-06-10T14:12:55;9.88;;;7.15;;
18125;SDS011;53956;52.442;13.284;2023-06-10T14:15:22;10.00;;;7.72;;
18125;SDS011;53956;52.442;13.284;2023-06-10T14:17:48;12.73;;;8.25;;
18125;SDS011;53956;52.442;13.284;2023-06-10T14:20:16;10.68;;;7.80;;
18125;SDS011;53956;52.442;13.284;2023-06-10T14:22:43;14.05;;;7.97;;
18125;SDS011;53956;52.442;13.284;2023-06-10T14:25:10;9.75;;;7.32;;
18125;SDS011;53956;52.442;13.284;2023-06-10T14:27:37;10.32;;;7.45;;
18125;SDS011;53956;52.442;13.284;2023-06-10T14:30:04;13.57;;;7.85;;